sensor_id;sensor_type;location;lat;lon;timestamp;pressure;altitude;pressure_sealevel;temperature;humidity
61571;BME280;47463;49.884;10.010;2022-11-02T00:00:01;102380;;;7.9;87
61571;BME280;47463;49.884;10.010;2022-11-02T00:05:01;102380;;;8;87
61571;BME280;47463;49.884;10.010;2022-11-02T00:10:01;102380;;;8;87
61571;BME280;47463;49.884;10.010;2022-11-02T00:15:01;102380;;;7.9;87
61571;BME280;47463;49.884;10.010;2022-11-02T00:20:01;102390;;;7.9;87
61571;BME280;47463;49.884;10.010;2022-11-02T00:25:01;102390;;;7.8;87
61571;BME280;47463;49.884;10.010;2022-11-02T00:30:01;102380;;;7.8;87
61571;BME280;47463;49.884;10.010;2022-11-02T00:35:01;102390;;;7.9;87
61571;BME280;47463;49.884;10.010;2022-11-02T00:40:01;102380;;;7.9;87
61571;BME280;47463;49.884;10.010;2022-11-02T00:45:01;102380;;;7.8;87
61571;BME280;47463;49.884;10.010;2022-11-02T00:50:01;102380;;;7.7;87
61571;BME280;47463;49.884;10.010;2022-11-02T00:55:01;102370;;;7.6;87
61571;BME280;47463;49.884;10.010;2022-11-02T01:00:01;102370;;;7.5;87
61571;BME280;47463;49.884;10.010;2022-11-02T01:05:01;102380;;;7.6;88
61571;BME280;47463;49.884;10.010;2022-11-02T01:10:01;102380;;;7.4;88
61571;BME280;47463;49.884;10.010;2022-11-02T01:15:01;102390;;;7.2;88
61571;BME280;47463;49.884;10.010;2022-11-02T01:20:01;102380;;;7.1;88
61571;BME280;47463;49.884;10.010;2022-11-02T01:25:01;102380;;;7.1;88
61571;BME280;47463;49.884;10.010;2022-11-02T01:30:01;102380;;;7;88
61571;BME280;47463;49.884;10.010;2022-11-02T01:35:01;102360;;;6.9;88
61571;BME280;47463;49.884;10.010;2022-11-02T01:40:01;102370;;;6.8;88
61571;BME280;47463;49.884;10.010;2022-11-02T01:45:01;102360;;;6.8;88
61571;BME280;47463;49.884;10.010;2022-11-02T01:50:02;102360;;;6.8;88
61571;BME280;47463;49.884;10.010;2022-11-02T01:55:02;102350;;;6.8;88
61571;BME280;47463;49.884;10.010;2022-11-02T02:00:03;102350;;;6.7;88
61571;BME280;47463;49.884;10.010;2022-11-02T02:05:02;102350;;;6.7;88
61571;BME280;47463;49.884;10.010;2022-11-02T02:10:01;102340;;;6.8;88
61571;BME280;47463;49.884;10.010;2022-11-02T02:15:01;102350;;;7;88
61571;BME280;47463;49.884;10.010;2022-11-02T02:20:01;102350;;;7.1;88
61571;BME280;47463;49.884;10.010;2022-11-02T02:25:05;102340;;;7.3;88
61571;BME280;47463;49.884;10.010;2022-11-02T02:30:02;102340;;;7.5;88
61571;BME280;47463;49.884;10.010;2022-11-02T02:35:03;102340;;;7.4;87
61571;BME280;47463;49.884;10.010;2022-11-02T02:40:02;102340;;;7.4;87
61571;BME280;47463;49.884;10.010;2022-11-02T02:45:03;102340;;;7.5;87
61571;BME280;47463;49.884;10.010;2022-11-02T02:50:02;102340;;;7.6;87
61571;BME280;47463;49.884;10.010;2022-11-02T02:55:01;102340;;;7.5;87
61571;BME280;47463;49.884;10.010;2022-11-02T03:00:01;102330;;;7.5;87
61571;BME280;47463;49.884;10.010;2022-11-02T03:05:01;102330;;;7.5;87
61571;BME280;47463;49.884;10.010;2022-11-02T03:10:03;102320;;;7.5;87
61571;BME280;47463;49.884;10.010;2022-11-02T03:15:03;102330;;;7.5;87
61571;BME280;47463;49.884;10.010;2022-11-02T03:20:02;102330;;;7.5;87
61571;BME280;47463;49.884;10.010;2022-11-02T03:25:03;102330;;;7.6;87
61571;BME280;47463;49.884;10.010;2022-11-02T03:30:02;102330;;;7.7;87
61571;BME280;47463;49.884;10.010;2022-11-02T03:35:01;102340;;;7.8;86
61571;BME280;47463;49.884;10.010;2022-11-02T03:40:03;102340;;;7.9;86
61571;BME280;47463;49.884;10.010;2022-11-02T03:45:02;102330;;;7.9;86
61571;BME280;47463;49.884;10.010;2022-11-02T03:50:01;102340;;;8;86
61571;BME280;47463;49.884;10.010;2022-11-02T03:55:02;102340;;;8;86
61571;BME280;47463;49.884;10.010;2022-11-02T04:00:09;102340;;;8.1;86
61571;BME280;47463;49.884;10.010;2022-11-02T04:05:01;102340;;;8;86
61571;BME280;47463;49.884;10.010;2022-11-02T04:10:01;102340;;;8;86
61571;BME280;47463;49.884;10.010;2022-11-02T04:15:01;102350;;;7.9;86
61571;BME280;47463;49.884;10.010;2022-11-02T04:20:01;102360;;;7.8;86
61571;BME280;47463;49.884;10.010;2022-11-02T04:25:01;102360;;;7.9;86
61571;BME280;47463;49.884;10.010;2022-11-02T04:30:01;102350;;;7.9;86
61571;BME280;47463;49.884;10.010;2022-11-02T04:35:01;102360;;;7.8;86
61571;BME280;47463;49.884;10.010;2022-11-02T04:40:01;102360;;;7.7;86
61571;BME280;47463;49.884;10.010;2022-11-02T04:45:01;102370;;;7.8;86
61571;BME280;47463;49.884;10.010;2022-11-02T04:50:01;102360;;;7.8;86
61571;BME280;47463;49.884;10.010;2022-11-02T04:55:01;102360;;;7.7;86
61571;BME280;47463;49.884;10.010;2022-11-02T05:00:01;102360;;;7.7;86
61571;BME280;47463;49.884;10.010;2022-11-02T05:05:01;102360;;;7.7;86
61571;BME280;47463;49.884;10.010;2022-11-02T05:10:01;102350;;;7.6;86
61571;BME280;47463;49.884;10.010;2022-11-02T05:15:01;102360;;;7.6;86
61571;BME280;47463;49.884;10.010;2022-11-02T05:20:01;102370;;;7.6;86
61571;BME280;47463;49.884;10.010;2022-11-02T05:25:01;102380;;;7.6;86
61571;BME280;47463;49.884;10.010;2022-11-02T05:30:01;102380;;;7.8;86
61571;BME280;47463;49.884;10.010;2022-11-02T05:35:01;102380;;;7.8;86
61571;BME280;47463;49.884;10.010;2022-11-02T05:40:01;102380;;;8.3;86
61571;BME280;47463;49.884;10.010;2022-11-02T05:45:01;102390;;;8.3;85
61571;BME280;47463;49.884;10.010;2022-11-02T05:50:01;102380;;;8.4;85
61571;BME280;47463;49.884;10.010;2022-11-02T05:55:01;102380;;;8.4;85
61571;BME280;47463;49.884;10.010;2022-11-02T06:00:01;102370;;;8.4;85
61571;BME280;47463;49.884;10.010;2022-11-02T06:05:01;102390;;;8.4;85
61571;BME280;47463;49.884;10.010;2022-11-02T06:10:01;102390;;;8.6;85
61571;BME280;47463;49.884;10.010;2022-11-02T06:15:01;102400;;;8.8;84
61571;BME280;47463;49.884;10.010;2022-11-02T06:20:01;102400;;;8.9;84
61571;BME280;47463;49.884;10.010;2022-11-02T06:25:01;102400;;;8.9;84
61571;BME280;47463;49.884;10.010;2022-11-02T06:30:01;102409.99999999999;;;9.1;84
61571;BME280;47463;49.884;10.010;2022-11-02T06:35:01;102409.99999999999;;;9.2;83
61571;BME280;47463;49.884;10.010;2022-11-02T06:40:01;102409.99999999999;;;9.3;83
61571;BME280;47463;49.884;10.010;2022-11-02T06:45:01;102430;;;9.3;83
61571;BME280;47463;49.884;10.010;2022-11-02T06:50:01;102430;;;9.3;83
61571;BME280;47463;49.884;10.010;2022-11-02T06:55:01;102450;;;9.4;83
61571;BME280;47463;49.884;10.010;2022-11-02T07:00:01;102450;;;9.4;83
61571;BME280;47463;49.884;10.010;2022-11-02T07:05:01;102459.99999999999;;;9.4;83
61571;BME280;47463;49.884;10.010;2022-11-02T07:10:01;102480;;;9.4;83
61571;BME280;47463;49.884;10.010;2022-11-02T07:20:01;102470;;;9.5;84
61571;BME280;47463;49.884;10.010;2022-11-02T07:25:01;102490.00000000001;;;9.5;84
61571;BME280;47463;49.884;10.010;2022-11-02T07:30:01;102500;;;9.6;84
61571;BME280;47463;49.884;10.010;2022-11-02T07:35:01;102490.00000000001;;;9.8;83
61571;BME280;47463;49.884;10.010;2022-11-02T07:40:01;102500;;;9.9;83
61571;BME280;47463;49.884;10.010;2022-11-02T07:45:01;102500;;;10;83
61571;BME280;47463;49.884;10.010;2022-11-02T07:50:01;102509.99999999999;;;10.1;82
61571;BME280;47463;49.884;10.010;2022-11-02T07:55:01;102509.99999999999;;;10.2;82
61571;BME280;47463;49.884;10.010;2022-11-02T08:00:01;102509.99999999999;;;10.3;82
61571;BME280;47463;49.884;10.010;2022-11-02T08:05:01;102509.99999999999;;;10.6;82
61571;BME280;47463;49.884;10.010;2022-11-02T08:10:01;102509.99999999999;;;10.8;81
61571;BME280;47463;49.884;10.010;2022-11-02T08:15:01;102509.99999999999;;;10.8;81
61571;BME280;47463;49.884;10.010;2022-11-02T08:20:01;102509.99999999999;;;10.8;81
61571;BME280;47463;49.884;10.010;2022-11-02T08:25:01;102520;;;11;81
61571;BME280;47463;49.884;10.010;2022-11-02T08:30:01;102530;;;11.2;81
61571;BME280;47463;49.884;10.010;2022-11-02T08:35:01;102530;;;11.1;81
61571;BME280;47463;49.884;10.010;2022-11-02T08:40:01;102540.00000000001;;;11.1;81
61571;BME280;47463;49.884;10.010;2022-11-02T08:45:01;102540.00000000001;;;11.4;80
61571;BME280;47463;49.884;10.010;2022-11-02T08:50:01;102540.00000000001;;;11.7;80
61571;BME280;47463;49.884;10.010;2022-11-02T08:55:01;102540.00000000001;;;11.6;80
61571;BME280;47463;49.884;10.010;2022-11-02T09:00:01;102550;;;11.6;80
61571;BME280;47463;49.884;10.010;2022-11-02T09:05:01;102550;;;11.5;80
61571;BME280;47463;49.884;10.010;2022-11-02T09:10:01;102550;;;11.9;79
61571;BME280;47463;49.884;10.010;2022-11-02T09:15:01;102550;;;12.2;78
61571;BME280;47463;49.884;10.010;2022-11-02T09:20:01;102559.99999999999;;;12.4;77
61571;BME280;47463;49.884;10.010;2022-11-02T09:25:01;102550;;;12.6;76
61571;BME280;47463;49.884;10.010;2022-11-02T09:30:01;102559.99999999999;;;13.2;75
61571;BME280;47463;49.884;10.010;2022-11-02T09:35:01;102559.99999999999;;;13.2;72
61571;BME280;47463;49.884;10.010;2022-11-02T09:40:01;102559.99999999999;;;13.2;72
61571;BME280;47463;49.884;10.010;2022-11-02T09:45:02;102559.99999999999;;;13.4;70
61571;BME280;47463;49.884;10.010;2022-11-02T09:50:01;102559.99999999999;;;13.5;69
61571;BME280;47463;49.884;10.010;2022-11-02T09:55:02;102559.99999999999;;;13.2;68
61571;BME280;47463;49.884;10.010;2022-11-02T10:00:01;102559.99999999999;;;13.3;68
61571;BME280;47463;49.884;10.010;2022-11-02T10:05:04;102570;;;13.1;68
61571;BME280;47463;49.884;10.010;2022-11-02T10:10:02;102570;;;13;68
61571;BME280;47463;49.884;10.010;2022-11-02T10:15:02;102590.00000000001;;;13;68
61571;BME280;47463;49.884;10.010;2022-11-02T10:20:02;102580;;;13.5;69
61571;BME280;47463;49.884;10.010;2022-11-02T10:25:02;102570;;;13.3;68
61571;BME280;47463;49.884;10.010;2022-11-02T10:30:02;102590.00000000001;;;13;68
61571;BME280;47463;49.884;10.010;2022-11-02T10:35:01;102590.00000000001;;;13;68
61571;BME280;47463;49.884;10.010;2022-11-02T10:40:03;102590.00000000001;;;12.7;69
61571;BME280;47463;49.884;10.010;2022-11-02T10:45:05;102590.00000000001;;;12.6;70
61571;BME280;47463;49.884;10.010;2022-11-02T10:50:03;102580;;;13.1;69
61571;BME280;47463;49.884;10.010;2022-11-02T10:55:01;102580;;;13.1;69
61571;BME280;47463;49.884;10.010;2022-11-02T11:00:33;102580;;;13.5;69
61571;BME280;47463;49.884;10.010;2022-11-02T11:05:10;102580;;;13.8;67
61571;BME280;47463;49.884;10.010;2022-11-02T11:10:01;102580;;;13.7;67
61571;BME280;47463;49.884;10.010;2022-11-02T11:15:01;102580;;;13.7;67
61571;BME280;47463;49.884;10.010;2022-11-02T11:20:02;102590.00000000001;;;13.7;66
61571;BME280;47463;49.884;10.010;2022-11-02T11:25:17;102580;;;14.1;66
61571;BME280;47463;49.884;10.010;2022-11-02T11:30:01;102580;;;13.9;65
61571;BME280;47463;49.884;10.010;2022-11-02T11:35:01;102590.00000000001;;;13.7;65
61571;BME280;47463;49.884;10.010;2022-11-02T11:40:01;102590.00000000001;;;13.4;65
61571;BME280;47463;49.884;10.010;2022-11-02T11:45:02;102590.00000000001;;;13.4;65
61571;BME280;47463;49.884;10.010;2022-11-02T11:50:01;102580;;;13.6;64
61571;BME280;47463;49.884;10.010;2022-11-02T11:55:04;102590.00000000001;;;13.8;63
61571;BME280;47463;49.884;10.010;2022-11-02T12:00:02;102580;;;14.2;64
61571;BME280;47463;49.884;10.010;2022-11-02T12:05:02;102559.99999999999;;;14.2;63
61571;BME280;47463;49.884;10.010;2022-11-02T12:10:02;102580;;;14.4;62
61571;BME280;47463;49.884;10.010;2022-11-02T12:15:04;102580;;;14.4;62
61571;BME280;47463;49.884;10.010;2022-11-02T12:20:05;102559.99999999999;;;14.9;62
61571;BME280;47463;49.884;10.010;2022-11-02T12:25:04;102559.99999999999;;;14.7;61
61571;BME280;47463;49.884;10.010;2022-11-02T12:30:02;102570;;;14.3;61
61571;BME280;47463;49.884;10.010;2022-11-02T12:35:04;102570;;;14.2;61
61571;BME280;47463;49.884;10.010;2022-11-02T12:40:04;102559.99999999999;;;14.1;63
61571;BME280;47463;49.884;10.010;2022-11-02T12:45:04;102550;;;13.7;64
61571;BME280;47463;49.884;10.010;2022-11-02T12:50:03;102550;;;13.5;63
61571;BME280;47463;49.884;10.010;2022-11-02T12:55:01;102540.00000000001;;;13.6;62
61571;BME280;47463;49.884;10.010;2022-11-02T13:00:02;102540.00000000001;;;14.1;62
61571;BME280;47463;49.884;10.010;2022-11-02T13:05:01;102540.00000000001;;;14.4;60
61571;BME280;47463;49.884;10.010;2022-11-02T13:10:02;102540.00000000001;;;14.6;60
61571;BME280;47463;49.884;10.010;2022-11-02T13:15:01;102540.00000000001;;;14.6;59
61571;BME280;47463;49.884;10.010;2022-11-02T13:20:03;102540.00000000001;;;14.8;60
61571;BME280;47463;49.884;10.010;2022-11-02T13:25:02;102530;;;15;61
61571;BME280;47463;49.884;10.010;2022-11-02T13:30:01;102520;;;15.1;60
61571;BME280;47463;49.884;10.010;2022-11-02T13:35:03;102530;;;15.1;59
61571;BME280;47463;49.884;10.010;2022-11-02T13:40:02;102540.00000000001;;;15.3;59
61571;BME280;47463;49.884;10.010;2022-11-02T13:45:06;102530;;;15;60
61571;BME280;47463;49.884;10.010;2022-11-02T13:50:01;102530;;;14.5;60
61571;BME280;47463;49.884;10.010;2022-11-02T13:55:01;102540.00000000001;;;14.3;61
61571;BME280;47463;49.884;10.010;2022-11-02T14:00:02;102550;;;14.1;63
61571;BME280;47463;49.884;10.010;2022-11-02T14:05:01;102550;;;14.2;61
61571;BME280;47463;49.884;10.010;2022-11-02T14:10:06;102540.00000000001;;;14.3;61
61571;BME280;47463;49.884;10.010;2022-11-02T14:15:36;102540.00000000001;;;14.4;61
61571;BME280;47463;49.884;10.010;2022-11-02T14:20:01;102530;;;14.6;61
61571;BME280;47463;49.884;10.010;2022-11-02T14:25:14;102520;;;14.6;61
61571;BME280;47463;49.884;10.010;2022-11-02T14:30:01;102520;;;14.6;61
61571;BME280;47463;49.884;10.010;2022-11-02T14:35:04;102530;;;14.6;61
61571;BME280;47463;49.884;10.010;2022-11-02T14:40:03;102520;;;14.6;61
61571;BME280;47463;49.884;10.010;2022-11-02T14:45:12;102520;;;14.5;62
61571;BME280;47463;49.884;10.010;2022-11-02T14:50:02;102530;;;14.2;61
61571;BME280;47463;49.884;10.010;2022-11-02T14:55:01;102520;;;14.1;61
61571;BME280;47463;49.884;10.010;2022-11-02T15:00:02;102509.99999999999;;;14;61
61571;BME280;47463;49.884;10.010;2022-11-02T15:05:01;102509.99999999999;;;13.7;63
61571;BME280;47463;49.884;10.010;2022-11-02T15:10:01;102520;;;13.5;65
61571;BME280;47463;49.884;10.010;2022-11-02T15:15:04;102520;;;13.5;65
61571;BME280;47463;49.884;10.010;2022-11-02T15:20:19;102520;;;13.1;65
61571;BME280;47463;49.884;10.010;2022-11-02T15:25:02;102520;;;13;65
61571;BME280;47463;49.884;10.010;2022-11-02T15:30:01;102540.00000000001;;;12.9;65
61571;BME280;47463;49.884;10.010;2022-11-02T15:35:01;102520;;;12.7;66
61571;BME280;47463;49.884;10.010;2022-11-02T15:40:02;102520;;;12.5;67
61571;BME280;47463;49.884;10.010;2022-11-02T15:45:03;102520;;;12.4;67
61571;BME280;47463;49.884;10.010;2022-11-02T15:50:05;102500;;;11.7;69
61571;BME280;47463;49.884;10.010;2022-11-02T15:55:02;102500;;;11.3;70
61571;BME280;47463;49.884;10.010;2022-11-02T16:00:03;102520;;;11.3;70
61571;BME280;47463;49.884;10.010;2022-11-02T16:05:01;102509.99999999999;;;10.9;71
61571;BME280;47463;49.884;10.010;2022-11-02T16:10:09;102520;;;10.9;71
61571;BME280;47463;49.884;10.010;2022-11-02T16:15:04;102520;;;11;71
61571;BME280;47463;49.884;10.010;2022-11-02T16:20:09;102520;;;10.7;72
61571;BME280;47463;49.884;10.010;2022-11-02T16:25:05;102509.99999999999;;;10.7;72
61571;BME280;47463;49.884;10.010;2022-11-02T16:30:01;102509.99999999999;;;10.1;74
61571;BME280;47463;49.884;10.010;2022-11-02T16:35:01;102509.99999999999;;;10.1;74
61571;BME280;47463;49.884;10.010;2022-11-02T16:40:01;102500;;;9.8;75
61571;BME280;47463;49.884;10.010;2022-11-02T16:45:01;102500;;;9.9;75
61571;BME280;47463;49.884;10.010;2022-11-02T16:50:01;102509.99999999999;;;9.7;75
61571;BME280;47463;49.884;10.010;2022-11-02T16:55:01;102509.99999999999;;;9.4;76
61571;BME280;47463;49.884;10.010;2022-11-02T17:00:02;102500;;;9.1;77
61571;BME280;47463;49.884;10.010;2022-11-02T17:05:01;102500;;;9.6;76
61571;BME280;47463;49.884;10.010;2022-11-02T17:10:01;102500;;;10.1;75
61571;BME280;47463;49.884;10.010;2022-11-02T17:15:02;102490.00000000001;;;10.3;75
61571;BME280;47463;49.884;10.010;2022-11-02T17:20:04;102490.00000000001;;;10.3;75
61571;BME280;47463;49.884;10.010;2022-11-02T17:25:02;102490.00000000001;;;10.3;75
61571;BME280;47463;49.884;10.010;2022-11-02T17:30:01;102500;;;10.2;75
61571;BME280;47463;49.884;10.010;2022-11-02T17:35:01;102500;;;10.3;75
61571;BME280;47463;49.884;10.010;2022-11-02T17:40:01;102500;;;10.2;76
61571;BME280;47463;49.884;10.010;2022-11-02T17:45:33;102509.99999999999;;;10.1;76
61571;BME280;47463;49.884;10.010;2022-11-02T17:50:01;102490.00000000001;;;9.9;76
61571;BME280;47463;49.884;10.010;2022-11-02T17:55:01;102480;;;9.7;77
61571;BME280;47463;49.884;10.010;2022-11-02T18:00:01;102490.00000000001;;;9.7;77
61571;BME280;47463;49.884;10.010;2022-11-02T18:05:01;102500;;;9.5;77
61571;BME280;47463;49.884;10.010;2022-11-02T18:10:01;102500;;;9.7;77
61571;BME280;47463;49.884;10.010;2022-11-02T18:15:01;102500;;;9.7;77
61571;BME280;47463;49.884;10.010;2022-11-02T18:20:01;102500;;;9.5;77
61571;BME280;47463;49.884;10.010;2022-11-02T18:25:01;102490.00000000001;;;9.3;78
61571;BME280;47463;49.884;10.010;2022-11-02T18:30:01;102490.00000000001;;;9.3;78
61571;BME280;47463;49.884;10.010;2022-11-02T18:35:01;102490.00000000001;;;9.2;78
61571;BME280;47463;49.884;10.010;2022-11-02T18:40:01;102500;;;9.2;78
61571;BME280;47463;49.884;10.010;2022-11-02T18:45:01;102490.00000000001;;;9.1;78
61571;BME280;47463;49.884;10.010;2022-11-02T18:50:01;102480;;;9.3;78
61571;BME280;47463;49.884;10.010;2022-11-02T18:55:01;102459.99999999999;;;9.4;77
61571;BME280;47463;49.884;10.010;2022-11-02T19:00:01;102480;;;9.5;77
61571;BME280;47463;49.884;10.010;2022-11-02T19:05:01;102470;;;9.1;77
61571;BME280;47463;49.884;10.010;2022-11-02T19:10:01;102470;;;9;78
61571;BME280;47463;49.884;10.010;2022-11-02T19:15:01;102470;;;9.1;78
61571;BME280;47463;49.884;10.010;2022-11-02T19:20:01;102459.99999999999;;;9.1;78
61571;BME280;47463;49.884;10.010;2022-11-02T19:25:01;102450;;;9.1;78
61571;BME280;47463;49.884;10.010;2022-11-02T19:30:01;102459.99999999999;;;8.8;78
61571;BME280;47463;49.884;10.010;2022-11-02T19:35:01;102450;;;8.9;78
61571;BME280;47463;49.884;10.010;2022-11-02T19:40:01;102450;;;8.8;78
61571;BME280;47463;49.884;10.010;2022-11-02T19:45:01;102450;;;8.8;78
61571;BME280;47463;49.884;10.010;2022-11-02T19:50:01;102459.99999999999;;;8.7;79
61571;BME280;47463;49.884;10.010;2022-11-02T19:55:01;102450;;;8.5;79
61571;BME280;47463;49.884;10.010;2022-11-02T20:00:01;102450;;;8.4;79
61571;BME280;47463;49.884;10.010;2022-11-02T20:05:01;102450;;;8.3;79
61571;BME280;47463;49.884;10.010;2022-11-02T20:10:01;102450;;;8.2;79
61571;BME280;47463;49.884;10.010;2022-11-02T20:15:01;102450;;;8.2;79
61571;BME280;47463;49.884;10.010;2022-11-02T20:20:01;102459.99999999999;;;7.9;80
61571;BME280;47463;49.884;10.010;2022-11-02T20:25:01;102450;;;7.8;80
61571;BME280;47463;49.884;10.010;2022-11-02T20:30:01;102450;;;7.9;80
61571;BME280;47463;49.884;10.010;2022-11-02T20:35:01;102459.99999999999;;;7.7;80
61571;BME280;47463;49.884;10.010;2022-11-02T20:40:01;102450;;;7.1;79
61571;BME280;47463;49.884;10.010;2022-11-02T20:45:01;102450;;;6.9;81
61571;BME280;47463;49.884;10.010;2022-11-02T20:50:01;102450;;;6.7;81
61571;BME280;47463;49.884;10.010;2022-11-02T20:55:01;102450;;;6.3;81
61571;BME280;47463;49.884;10.010;2022-11-02T21:00:01;102450;;;6.3;82
61571;BME280;47463;49.884;10.010;2022-11-02T21:05:01;102450;;;5.9;82
61571;BME280;47463;49.884;10.010;2022-11-02T21:10:01;102450;;;5.8;83
61571;BME280;47463;49.884;10.010;2022-11-02T21:15:01;102440.00000000001;;;5.7;84
61571;BME280;47463;49.884;10.010;2022-11-02T21:20:01;102440.00000000001;;;5.7;84
61571;BME280;47463;49.884;10.010;2022-11-02T21:25:01;102450;;;5.6;85
61571;BME280;47463;49.884;10.010;2022-11-02T21:30:01;102440.00000000001;;;5.5;85
61571;BME280;47463;49.884;10.010;2022-11-02T21:35:01;102440.00000000001;;;5.4;85
61571;BME280;47463;49.884;10.010;2022-11-02T21:40:01;102440.00000000001;;;5.4;85
61571;BME280;47463;49.884;10.010;2022-11-02T21:45:01;102430;;;5.4;86
61571;BME280;47463;49.884;10.010;2022-11-02T21:50:01;102430;;;5.3;86
61571;BME280;47463;49.884;10.010;2022-11-02T21:55:01;102430;;;5.3;86
61571;BME280;47463;49.884;10.010;2022-11-02T22:00:01;102430;;;5.4;86
61571;BME280;47463;49.884;10.010;2022-11-02T22:05:01;102420;;;5.2;86
61571;BME280;47463;49.884;10.010;2022-11-02T22:10:01;102420;;;5.2;86
61571;BME280;47463;49.884;10.010;2022-11-02T22:15:01;102420;;;5.2;86
61571;BME280;47463;49.884;10.010;2022-11-02T22:20:01;102409.99999999999;;;5.2;86
61571;BME280;47463;49.884;10.010;2022-11-02T22:25:01;102390;;;5.1;86
61571;BME280;47463;49.884;10.010;2022-11-02T22:30:01;102390;;;5.2;87
61571;BME280;47463;49.884;10.010;2022-11-02T22:35:01;102390;;;5.2;87
61571;BME280;47463;49.884;10.010;2022-11-02T22:40:01;102390;;;5;86
61571;BME280;47463;49.884;10.010;2022-11-02T22:45:01;102390;;;5.2;87
61571;BME280;47463;49.884;10.010;2022-11-02T22:50:01;102380;;;5.2;87
61571;BME280;47463;49.884;10.010;2022-11-02T22:55:01;102380;;;5.2;86
61571;BME280;47463;49.884;10.010;2022-11-02T23:00:01;102380;;;5.3;87
61571;BME280;47463;49.884;10.010;2022-11-02T23:05:01;102390;;;5.2;86
61571;BME280;47463;49.884;10.010;2022-11-02T23:10:01;102390;;;5.1;86
61571;BME280;47463;49.884;10.010;2022-11-02T23:15:01;102390;;;5.1;86
61571;BME280;47463;49.884;10.010;2022-11-02T23:20:01;102390;;;5.1;87
61571;BME280;47463;49.884;10.010;2022-11-02T23:25:01;102370;;;5.1;87
61571;BME280;47463;49.884;10.010;2022-11-02T23:30:01;102370;;;5.1;87
61571;BME280;47463;49.884;10.010;2022-11-02T23:35:01;102370;;;5.1;87
61571;BME280;47463;49.884;10.010;2022-11-02T23:40:01;102360;;;5.2;87
61571;BME280;47463;49.884;10.010;2022-11-02T23:45:01;102360;;;5.2;87
61571;BME280;47463;49.884;10.010;2022-11-02T23:50:01;102360;;;5.1;87
61571;BME280;47463;49.884;10.010;2022-11-02T23:55:01;102360;;;5.1;87
